Time;durP1;ratioP1;P1;durP2;ratioP2;P2;SDS_P1;SDS_P2;PMS_P1;PMS_P2;Temp;Humidity;BMP_temperature;BMP_pressure;BME280_temperature;BME280_humidity;BME280_pressure;Samples;Min_cycle;Max_cycle;Signal;HPM_P1;HPM_P2
2021/08/01 00:01:06;;;;;;;;;4.33;3.67;;;;;19.59;49.33;100895.31;4943729;28;47349;-92
2021/08/01 00:03:32;;;;;;;;;6.00;5.67;;;;;19.56;49.48;100900.81;4943737;28;45313;-92
2021/08/01 00:05:57;;;;;;;;;4.75;4.75;;;;;19.50;49.67;100897.66;4943791;28;45179;-92
2021/08/01 00:08:26;;;;;;;;;6.25;5.25;;;;;19.44;49.35;100897.25;4980660;28;45390;-92
2021/08/01 00:10:55;;;;;;;;;5.25;5.25;;;;;19.36;49.85;100887.25;4979376;28;48130;-92
2021/08/01 00:13:21;;;;;;;;;4.25;4.25;;;;;19.30;49.85;100898.25;4962442;28;45294;-92
2021/08/01 00:15:47;;;;;;;;;3.50;3.00;;;;;19.21;49.44;100895.28;4979179;28;45486;-92
2021/08/01 00:18:12;;;;;;;;;4.00;4.00;;;;;19.19;49.79;100893.69;4979715;28;45250;-92
2021/08/01 00:20:38;;;;;;;;;5.50;4.25;;;;;19.12;50.06;100893.28;4977261;28;47895;-93
2021/08/01 00:23:03;;;;;;;;;4.75;4.75;;;;;19.06;50.04;100893.72;4978903;28;45720;-92
2021/08/01 00:25:29;;;;;;;;;6.50;4.50;;;;;19.03;49.86;100894.75;4978941;28;45528;-92
2021/08/01 00:27:54;;;;;;;;;3.25;3.00;;;;;18.99;50.28;100900.34;4975491;28;45359;-92
2021/08/01 00:30:20;;;;;;;;;4.75;4.75;;;;;18.95;49.96;100900.56;4959760;28;47041;-92
2021/08/01 00:32:45;;;;;;;;;4.00;4.00;;;;;18.87;50.65;100891.47;4959299;28;45900;-92
2021/08/01 00:35:11;;;;;;;;;7.75;4.00;;;;;18.83;50.70;100896.97;4975603;28;45460;-92
2021/08/01 00:37:36;;;;;;;;;5.25;4.75;;;;;18.78;50.55;100899.06;4960760;28;45299;-92
2021/08/01 00:40:03;;;;;;;;;4.50;4.50;;;;;18.74;50.64;100900.22;4976689;28;48201;-92
2021/08/01 00:42:29;;;;;;;;;5.25;4.00;;;;;18.69;50.71;100907.59;4978192;28;45301;-92
2021/08/01 00:44:55;;;;;;;;;5.25;4.00;;;;;18.63;51.22;100894.84;4962476;28;45315;-92
2021/08/01 00:47:20;;;;;;;;;3.50;3.50;;;;;18.60;51.05;100901.16;4978961;28;45390;-92
2021/08/01 00:49:46;;;;;;;;;5.00;4.25;;;;;18.54;51.08;100897.16;4962480;28;47396;-91
2021/08/01 00:52:12;;;;;;;;;4.50;3.00;;;;;18.49;50.78;100901.91;4962488;28;45707;-92
2021/08/01 00:54:37;;;;;;;;;3.50;3.50;;;;;18.45;51.44;100897.78;4978559;28;45195;-92
2021/08/01 00:57:04;;;;;;;;;6.00;5.25;;;;;18.42;51.45;100897.97;4979006;28;45281;-93
2021/08/01 00:59:38;;;;;;;;;5.00;4.00;;;;;18.38;51.36;100901.78;4978895;28;46269;-91
2021/08/01 01:02:10;;;;;;;;;4.00;4.00;;;;;18.40;51.72;100902.50;4979930;28;45506;-92
2021/08/01 01:04:53;;;;;;;;;6.00;4.00;;;;;18.35;52.11;100905.44;4962385;28;45449;-92
2021/08/01 01:07:34;;;;;;;;;4.25;4.00;;;;;18.31;51.99;100903.97;4978900;28;45421;-92
2021/08/01 01:10:06;;;;;;;;;5.25;4.00;;;;;18.27;52.23;100907.75;4962886;28;47433;-92
2021/08/01 01:12:44;;;;;;;;;6.50;4.50;;;;;18.21;52.08;100903.72;4994476;28;45782;-92
2021/08/01 01:15:14;;;;;;;;;4.50;3.75;;;;;18.18;52.14;100901.28;4994570;28;45424;-92
2021/08/01 01:17:47;;;;;;;;;5.00;3.75;;;;;18.14;52.59;100903.28;4994905;28;45377;-92
2021/08/01 01:20:37;;;;;;;;;5.75;3.50;;;;;18.11;52.13;100907.91;4994444;28;47418;-93
2021/08/01 01:23:33;;;;;;;;;5.25;5.00;;;;;18.06;52.61;100905.59;4994261;28;45375;-91
2021/08/01 01:26:02;;;;;;;;;5.00;4.25;;;;;18.02;52.80;100902.25;4993505;28;45270;-92
2021/08/01 01:28:39;;;;;;;;;5.00;4.25;;;;;18.00;52.34;100903.28;4978547;28;45379;-92
2021/08/01 01:31:41;;;;;;;;;5.00;5.00;;;;;17.94;52.89;100901.91;4974424;28;47160;-92
2021/08/01 01:34:18;;;;;;;;;6.50;5.25;;;;;17.93;52.64;100910.78;4974768;28;45563;-92
2021/08/01 01:36:46;;;;;;;;;4.00;4.00;;;;;17.92;53.22;100913.50;4974219;28;45364;-92
2021/08/01 01:39:13;;;;;;;;;5.00;5.00;;;;;17.87;53.18;100917.25;4975122;28;45362;-93
2021/08/01 01:41:45;;;;;;;;;5.50;5.00;;;;;17.85;53.51;100913.03;4976560;28;48209;-92
2021/08/01 01:44:11;;;;;;;;;4.50;4.00;;;;;17.82;53.48;100910.63;4964647;28;45267;-92
2021/08/01 01:46:37;;;;;;;;;4.50;4.50;;;;;17.74;53.34;100906.66;4942560;28;44764;-92
2021/08/01 01:49:09;;;;;;;;;5.00;5.00;;;;;17.74;53.77;100906.66;4975035;28;45521;-92
2021/08/01 01:51:36;;;;;;;;;7.00;4.50;;;;;17.76;54.36;100914.47;4959560;28;45812;-92
2021/08/01 01:54:03;;;;;;;;;6.50;3.50;;;;;17.72;53.86;100908.56;4992009;28;45337;-92
2021/08/01 01:56:31;;;;;;;;;4.75;4.75;;;;;17.73;54.32;100898.88;4961732;28;45155;-92
2021/08/01 01:58:57;;;;;;;;;4.50;4.50;;;;;17.76;54.20;100903.94;4979280;28;45509;-92
2021/08/01 02:01:23;;;;;;;;;5.50;4.50;;;;;17.74;54.10;100906.66;4977782;28;46822;-92
2021/08/01 02:03:50;;;;;;;;;4.75;4.75;;;;;17.74;54.72;100898.75;4957777;28;45338;-92
2021/08/01 02:06:16;;;;;;;;;7.00;6.00;;;;;17.73;54.20;100902.34;4958311;28;45394;-92
2021/08/01 02:08:57;;;;;;;;;6.25;5.00;;;;;17.74;54.68;100897.94;4986786;28;45514;-92
2021/08/01 02:11:27;;;;;;;;;5.25;5.25;;;;;17.69;54.72;100892.13;4961383;28;48292;-92
2021/08/01 02:14:09;;;;;;;;;4.25;4.25;;;;;17.72;54.40;100899.81;4954940;28;45440;-92
2021/08/01 02:16:39;;;;;;;;;5.00;4.00;;;;;17.73;54.32;100898.88;4961974;28;44781;-93
2021/08/01 02:19:10;;;;;;;;;5.00;5.00;;;;;17.74;54.84;100906.66;4977888;28;45380;-92
2021/08/01 02:21:39;;;;;;;;;4.00;4.00;;;;;17.76;54.46;100901.31;4977337;28;46868;-93
2021/08/01 02:24:05;;;;;;;;;4.00;3.75;;;;;17.76;54.87;100896.03;4974390;28;45456;-92
2021/08/01 02:26:33;;;;;;;;;3.50;3.50;;;;;17.76;54.67;100896.03;4973721;28;45475;-92
2021/08/01 02:29:00;;;;;;;;;5.00;5.00;;;;;17.75;54.79;100895.22;4974354;28;45488;-92
2021/08/01 02:31:27;;;;;;;;;6.00;3.75;;;;;17.75;54.88;100899.63;4941438;28;47988;-92
2021/08/01 02:33:53;;;;;;;;;4.75;4.25;;;;;17.78;55.19;100896.81;4973786;28;45432;-92
2021/08/01 02:36:20;;;;;;;;;6.00;4.75;;;;;17.76;54.95;100893.41;4964016;28;45496;-91
2021/08/01 02:38:49;;;;;;;;;4.00;4.00;;;;;17.76;54.54;100896.03;4993575;28;45693;-93
2021/08/01 02:41:19;;;;;;;;;7.00;5.00;;;;;17.75;55.01;100897.84;4989779;28;48188;-93
2021/08/01 02:43:47;;;;;;;;;4.00;4.00;;;;;17.77;55.25;100887.19;4977682;28;45313;-93
2021/08/01 02:46:16;;;;;;;;;4.00;4.00;;;;;17.75;55.34;100884.69;4978026;28;45454;-91
2021/08/01 02:48:41;;;;;;;;;7.00;4.50;;;;;17.78;55.32;100875.75;4977125;28;44880;-92
2021/08/01 02:51:10;;;;;;;;;4.75;4.75;;;;;17.77;54.99;100872.25;4993443;28;46543;-93
2021/08/01 02:53:43;;;;;;;;;5.50;5.00;;;;;17.76;54.84;100878.47;4993337;28;45368;-92
2021/08/01 02:56:11;;;;;;;;;3.75;3.75;;;;;17.76;54.70;100883.75;4991014;28;45430;-92
2021/08/01 02:58:39;;;;;;;;;4.75;4.75;;;;;17.70;54.81;100875.38;5008566;28;45384;-92
2021/08/01 03:01:05;;;;;;;;;6.00;4.00;;;;;17.72;54.73;100884.00;4993143;28;47235;-91
2021/08/01 03:03:31;;;;;;;;;5.25;4.50;;;;;17.71;54.74;100890.22;4992841;28;45237;-92
2021/08/01 03:05:58;;;;;;;;;5.00;5.00;;;;;17.70;54.99;100891.19;4996466;28;45446;-92
2021/08/01 03:08:25;;;;;;;;;6.00;4.00;;;;;17.67;55.04;100886.94;4981502;28;45338;-92
2021/08/01 03:10:52;;;;;;;;;5.75;4.50;;;;;17.62;55.30;100886.41;4976786;28;47185;-92
2021/08/01 03:13:18;;;;;;;;;6.00;4.00;;;;;17.57;55.17;100884.06;4944329;28;45637;-92
2021/08/01 03:15:44;;;;;;;;;4.50;4.50;;;;;17.57;55.12;100891.97;4977022;28;45428;-92
2021/08/01 03:18:10;;;;;;;;;4.00;4.00;;;;;17.54;55.59;100889.50;4981517;28;45330;-92
2021/08/01 03:20:36;;;;;;;;;3.25;3.25;;;;;17.47;55.59;100877.69;4987564;28;47471;-92
2021/08/01 03:23:03;;;;;;;;;4.25;4.25;;;;;17.48;55.36;100885.50;4980189;28;45785;-93
2021/08/01 03:25:29;;;;;;;;;5.00;4.00;;;;;17.48;55.29;100893.38;4964019;28;44880;-92
2021/08/01 03:27:54;;;;;;;;;4.25;4.25;;;;;17.43;55.56;100878.81;4980120;28;45424;-91
2021/08/01 03:30:20;;;;;;;;;6.25;6.00;;;;;17.40;55.83;100893.00;4988615;28;48041;-91
2021/08/01 03:32:46;;;;;;;;;5.50;5.50;;;;;17.35;55.73;100888.03;4963444;28;45795;-92
2021/08/01 03:35:11;;;;;;;;;5.25;5.00;;;;;17.29;56.18;100885.81;4980041;28;45424;-91
2021/08/01 03:37:37;;;;;;;;;7.00;6.25;;;;;17.26;56.15;100885.16;4980133;28;45437;-92
2021/08/01 03:40:02;;;;;;;;;3.50;3.50;;;;;17.27;55.85;100892.09;4952543;28;46964;-92
2021/08/01 03:42:28;;;;;;;;;3.75;3.75;;;;;17.20;55.97;100883.72;4976842;28;45532;-92
2021/08/01 03:44:53;;;;;;;;;4.75;4.00;;;;;17.15;56.07;100884.03;4971395;28;45430;-92
2021/08/01 03:47:19;;;;;;;;;3.50;3.25;;;;;17.12;56.15;100891.25;4979885;28;45277;-92
2021/08/01 03:49:44;;;;;;;;;2.00;2.00;;;;;17.07;56.10;100891.53;4979788;28;47228;-92
2021/08/01 03:52:10;;;;;;;;;5.00;3.75;;;;;17.05;56.39;100888.16;4979639;28;45736;-92
2021/08/01 03:54:36;;;;;;;;;4.25;3.25;;;;;17.06;56.18;100890.69;4979613;28;45379;-92
2021/08/01 03:57:01;;;;;;;;;4.00;4.00;;;;;17.03;56.06;100890.03;4979903;28;45308;-93
2021/08/01 03:59:27;;;;;;;;;5.50;3.00;;;;;16.98;55.89;100878.94;4979520;28;47002;-92
2021/08/01 04:01:52;;;;;;;;;4.00;3.00;;;;;17.02;55.65;100893.56;4948156;28;45256;-92
2021/08/01 04:04:20;;;;;;;;;4.33;4.33;;;;;16.97;55.90;100888.59;4976749;28;45349;-92
2021/08/01 04:06:45;;;;;;;;;4.00;2.00;;;;;16.96;56.41;100890.34;4960308;28;45576;-92
2021/08/01 04:09:11;;;;;;;;;3.67;3.67;;;;;16.96;55.91;100890.34;4943702;28;47013;-92
2021/08/01 04:11:39;;;;;;;;;4.67;3.00;;;;;16.91;56.32;100883.69;4983892;28;45535;-92
2021/08/01 04:14:05;;;;;;;;;4.00;4.00;;;;;16.89;56.47;100883.78;4979143;28;45322;-92
2021/08/01 04:16:30;;;;;;;;;4.00;4.00;;;;;16.85;56.57;100878.81;4963075;28;44832;-93
2021/08/01 04:18:55;;;;;;;;;5.00;4.00;;;;;16.82;56.48;100888.56;4962875;28;47217;-91
2021/08/01 04:21:21;;;;;;;;;3.00;3.00;;;;;16.83;56.50;100889.41;4979079;28;45793;-92
2021/08/01 04:23:47;;;;;;;;;3.75;3.25;;;;;16.76;56.62;100878.41;4962762;28;45293;-92
2021/08/01 04:26:12;;;;;;;;;3.75;3.25;;;;;16.78;56.39;100883.59;4979639;28;45685;-92
2021/08/01 04:28:40;;;;;;;;;5.75;3.00;;;;;16.75;56.71;100876.72;4962823;28;47370;-92
2021/08/01 04:31:09;;;;;;;;;3.00;3.00;;;;;16.71;56.95;100872.59;4962553;28;45810;-92
2021/08/01 04:33:35;;;;;;;;;5.00;5.00;;;;;16.72;56.92;100881.34;4962586;28;45458;-91
2021/08/01 04:36:01;;;;;;;;;3.00;3.00;;;;;16.69;56.85;100883.22;4979508;28;45476;-93
2021/08/01 04:38:26;;;;;;;;;4.00;4.00;;;;;16.62;56.94;100871.34;4978999;28;46881;-92
2021/08/01 04:40:52;;;;;;;;;3.50;3.50;;;;;16.62;57.27;100881.88;4979103;28;45358;-92
2021/08/01 04:43:17;;;;;;;;;3.25;3.00;;;;;16.60;56.95;100877.63;4962618;28;45258;-92
2021/08/01 04:45:43;;;;;;;;;6.00;5.25;;;;;16.59;57.14;100886.47;4963134;28;45501;-92
2021/08/01 04:48:08;;;;;;;;;4.00;4.00;;;;;16.62;57.13;100886.28;4962427;28;46981;-93
2021/08/01 04:50:33;;;;;;;;;4.00;4.00;;;;;16.61;57.02;100877.56;4962679;28;45368;-92
2021/08/01 04:52:59;;;;;;;;;4.00;3.50;;;;;16.60;57.02;100880.28;4978262;28;45543;-91
2021/08/01 04:55:24;;;;;;;;;3.25;3.00;;;;;16.59;56.90;100884.69;4977964;28;45527;-91
2021/08/01 04:57:50;;;;;;;;;3.00;3.00;;;;;16.58;57.60;100883.00;4962161;28;47173;-92
2021/08/01 05:00:16;;;;;;;;;4.67;4.00;;;;;16.60;57.47;100888.16;4978434;28;45425;-91
2021/08/01 05:02:41;;;;;;;;;5.00;3.75;;;;;16.60;57.39;100882.91;4961926;28;45489;-92
2021/08/01 05:05:07;;;;;;;;;3.50;2.00;;;;;16.57;57.41;100881.28;4973997;28;45486;-91
2021/08/01 05:07:33;;;;;;;;;5.75;4.00;;;;;16.59;57.42;100879.44;4977732;28;47453;-91
2021/08/01 05:10:00;;;;;;;;;5.00;5.00;;;;;16.62;57.79;100879.25;4977749;28;45506;-91
2021/08/01 05:12:26;;;;;;;;;4.50;4.00;;;;;16.63;57.79;100875.72;4978383;28;45345;-91
2021/08/01 05:14:51;;;;;;;;;4.00;3.25;;;;;16.63;58.02;100875.72;4978637;28;45201;-91
2021/08/01 05:17:20;;;;;;;;;6.50;4.25;;;;;16.61;58.51;100879.34;4977831;28;46836;-92
2021/08/01 05:19:45;;;;;;;;;6.25;4.00;;;;;16.65;58.21;100878.22;4977873;28;45415;-91
2021/08/01 05:22:12;;;;;;;;;6.00;4.00;;;;;16.62;57.98;100879.25;4978126;28;45349;-92
2021/08/01 05:24:39;;;;;;;;;3.67;3.67;;;;;16.68;57.90;100888.56;4978198;28;45364;-92
2021/08/01 05:27:05;;;;;;;;;4.00;4.00;;;;;16.68;58.26;100892.00;4977068;28;47306;-92
2021/08/01 05:29:30;;;;;;;;;4.00;4.00;;;;;16.71;58.56;100890.97;4960577;28;45405;-92
2021/08/01 05:31:56;;;;;;;;;3.33;3.00;;;;;16.70;58.84;100887.53;4978202;28;45565;-91
2021/08/01 05:34:22;;;;;;;;;4.75;4.00;;;;;16.74;58.80;100887.31;4961859;28;45454;-92
2021/08/01 05:36:48;;;;;;;;;5.50;4.00;;;;;16.75;58.83;100889.88;4976172;28;47177;-92
2021/08/01 05:39:13;;;;;;;;;4.00;3.25;;;;;16.82;58.78;100891.19;4977477;28;45315;-92
2021/08/01 05:41:39;;;;;;;;;4.33;3.00;;;;;16.88;58.84;100884.72;4977654;28;44767;-91
2021/08/01 05:44:05;;;;;;;;;4.33;4.00;;;;;16.95;58.50;100893.09;4978025;28;45295;-91
2021/08/01 05:46:30;;;;;;;;;4.00;4.00;;;;;16.98;58.50;100885.00;4960476;28;46956;-92
2021/08/01 05:48:56;;;;;;;;;4.00;4.00;;;;;17.05;58.24;100893.41;4988575;28;45475;-91
2021/08/01 05:51:21;;;;;;;;;4.75;3.75;;;;;17.09;58.31;100893.13;4993077;28;45364;-92
2021/08/01 05:53:55;;;;;;;;;3.00;3.00;;;;;17.10;58.20;100893.97;4973354;28;45611;-91
2021/08/01 05:56:20;;;;;;;;;3.33;3.00;;;;;17.19;58.07;100906.56;4977671;28;47146;-92
2021/08/01 05:58:46;;;;;;;;;3.00;2.00;;;;;17.22;58.37;100900.28;4961499;28;45467;-92
2021/08/01 06:01:16;;;;;;;;;8.33;4.33;;;;;17.23;58.10;100889.63;4977777;28;45471;-91
2021/08/01 06:03:42;;;;;;;;;3.00;3.00;;;;;17.22;58.42;100895.03;4977055;28;45281;-91
2021/08/01 06:06:14;;;;;;;;;4.33;4.00;;;;;17.28;58.31;100914.81;4976983;28;48308;-92
2021/08/01 06:08:41;;;;;;;;;6.00;4.00;;;;;17.25;58.34;100896.63;4976784;28;45381;-91
2021/08/01 06:11:07;;;;;;;;;3.67;2.00;;;;;17.26;58.66;100899.13;4977326;28;45375;-91
2021/08/01 06:13:36;;;;;;;;;4.00;2.00;;;;;17.30;58.05;100902.41;4978448;28;45219;-92
2021/08/01 06:16:02;;;;;;;;;2.00;2.00;;;;;17.35;58.59;100909.09;4993077;28;47738;-91
2021/08/01 06:18:28;;;;;;;;;4.00;3.00;;;;;17.36;58.31;100907.31;4993486;28;45437;-91
2021/08/01 06:21:16;;;;;;;;;5.00;2.00;;;;;17.37;57.60;100906.38;4985124;28;45534;-91
2021/08/01 06:23:44;;;;;;;;;3.00;3.00;;;;;17.35;58.25;100906.47;4977244;28;45477;-91
2021/08/01 06:26:11;;;;;;;;;2.00;1.67;;;;;17.39;58.12;100908.91;4960586;28;47091;-91
2021/08/01 06:28:37;;;;;;;;;2.00;2.00;;;;;17.43;58.03;100911.25;4960637;28;45467;-91
2021/08/01 06:31:04;;;;;;;;;3.00;2.00;;;;;17.44;57.61;100909.44;4979526;28;45567;-91
2021/08/01 06:33:30;;;;;;;;;3.00;2.67;;;;;17.48;57.81;100909.16;4996900;28;45575;-91
2021/08/01 06:36:12;;;;;;;;;3.00;3.00;;;;;17.52;58.41;100915.09;4977150;28;47446;-92
2021/08/01 06:38:45;;;;;;;;;4.50;3.00;;;;;17.58;57.77;100921.72;4976969;28;45479;-92
2021/08/01 06:41:11;;;;;;;;;4.00;4.00;;;;;17.56;57.39;100924.47;4971781;28;45667;-92
2021/08/01 06:43:36;;;;;;;;;2.00;2.00;;;;;17.61;57.76;100929.44;4967746;28;45584;-94
2021/08/01 06:49:32;;;;;;;;;1.33;1.33;;;;;17.68;57.35;100929.91;4933538;28;45608;-93
2021/08/01 06:52:00;;;;;;;;;3.00;3.00;;;;;17.73;57.51;100930.47;4931221;28;45557;-94
2021/08/01 06:54:43;;;;;;;;;;;;;;;;;;;;;
2021/08/01 06:57:11;;;;;;;;;2.00;2.00;;;;;17.84;57.88;100935.91;4916053;28;75565;-91
2021/08/01 07:00:23;;;;;;;;;;;;;;;;;;;;;
2021/08/01 07:03:19;;;;;;;;;2.00;2.00;;;;;17.90;56.75;100932.88;4859947;29;70106;-92
2021/08/01 07:05:51;;;;;;;;;3.00;3.00;;;;;17.94;56.88;100940.56;4887435;28;44861;-92
2021/08/01 07:11:21;;;;;;;;;2.00;2.00;;;;;18.06;57.02;100947.72;4899072;29;45299;-92
2021/08/01 07:13:49;;;;;;;;;2.67;1.33;;;;;18.09;57.21;100939.59;4873890;29;45309;-92
2021/08/01 07:16:20;;;;;;;;;5.00;2.00;;;;;18.08;56.40;100937.06;4872524;28;45684;-95
2021/08/01 07:18:53;;;;;;;;;2.67;2.00;;;;;18.16;56.46;100945.31;4860009;29;47273;-93
2021/08/01 07:21:34;;;;;;;;;5.00;1.33;;;;;18.20;56.38;100944.19;4861077;29;45748;-92
2021/08/01 07:27:17;;;;;;;;;;;;;;;;;;;;;
2021/08/01 07:30:00;;;;;;;;;5.00;2.33;;;;;18.29;56.44;100956.75;4841428;29;75237;-93
2021/08/01 07:35:44;;;;;;;;;3.00;2.00;;;;;18.38;56.86;100963.19;4861155;29;45313;-92
2021/08/01 07:38:29;;;;;;;;;3.67;2.33;;;;;18.45;56.51;100955.75;4845369;29;45554;-93
2021/08/01 07:41:17;;;;;;;;;3.00;3.00;;;;;18.50;56.26;100950.16;4878817;29;47132;-92
2021/08/01 07:44:13;;;;;;;;;4.00;3.00;;;;;18.59;56.45;100961.88;4845294;29;44974;-92
2021/08/01 07:47:04;;;;;;;;;;;;;;;;;;;;;
2021/08/01 07:49:49;;;;;;;;;;;;;;;;;;;;;
2021/08/01 07:52:35;;;;;;;;;4.33;2.00;;;;;18.80;56.06;100963.06;4916760;28;74240;-92
2021/08/01 07:55:07;;;;;;;;;5.00;3.33;;;;;18.88;55.71;100969.66;4920655;28;44740;-93
2021/08/01 07:58:27;;;;;;;;;3.00;2.33;;;;;18.96;55.92;100960.25;4929165;28;45554;-93
2021/08/01 08:01:19;;;;;;;;;2.00;2.00;;;;;19.05;55.20;100964.09;4901583;29;45392;-93
2021/08/01 08:04:52;;;;;;;;;;;;;;;;;;;;;
2021/08/01 08:07:39;;;;;;;;;2.33;2.00;;;;;19.20;54.58;100972.75;4861916;29;73065;-93
2021/08/01 08:10:22;;;;;;;;;;;;;;;;;;;;;
2021/08/01 08:13:05;;;;;;;;;4.33;3.00;;;;;19.29;54.59;100975.69;4862643;29;64335;-92
2021/08/01 08:15:36;;;;;;;;;4.33;2.00;;;;;19.33;54.42;100967.47;4847462;29;48182;-92
2021/08/01 08:18:05;;;;;;;;;1.67;1.00;;;;;19.36;53.93;100964.59;4878486;29;45669;-91
2021/08/01 08:20:31;;;;;;;;;2.00;2.00;;;;;19.45;54.11;100973.66;4841042;29;45609;-92
2021/08/01 08:23:09;;;;;;;;;4.33;3.33;;;;;19.51;54.03;100977.69;4847591;29;45472;-92
2021/08/01 08:25:49;;;;;;;;;;;;;;;;;;;;;
2021/08/01 08:28:39;;;;;;;;;3.00;2.00;;;;;19.61;53.78;100984.00;4861815;29;72786;-93
2021/08/01 08:39:56;;;;;;;;;;;;;;;;;;;;;
2021/08/01 08:42:25;;;;;;;;;1.00;1.00;;;;;19.71;52.85;100986.81;4962413;28;68521;-91
2021/08/01 08:44:50;;;;;;;;;2.33;2.00;;;;;19.69;52.99;100980.81;4969857;28;45487;-92
2021/08/01 08:47:36;;;;;;;;;;;;;;;;;;;;;
2021/08/01 08:50:35;;;;;;;;;;;;;;;;;;;;;
2021/08/01 08:53:21;;;;;;;;;1.00;1.00;;;;;19.84;53.27;100988.59;4918841;28;67614;-92
2021/08/01 08:56:37;;;;;;;;;;;;;;;;;;;;;
2021/08/01 08:59:28;;;;;;;;;3.00;1.33;;;;;19.95;52.87;100978.09;4861994;29;75235;-93
2021/08/01 09:02:44;;;;;;;;;;;;;;;;;;;;;
2021/08/01 09:05:13;;;;;;;;;2.67;2.00;;;;;20.11;52.58;100983.16;4842998;29;67393;-92
2021/08/01 09:07:59;;;;;;;;;3.33;2.00;;;;;20.20;52.44;100983.44;4828773;29;45337;-93
2021/08/01 09:10:34;;;;;;;;;2.00;2.00;;;;;20.28;52.62;100983.72;4827818;29;46829;-92
2021/08/01 09:13:26;;;;;;;;;2.00;2.00;;;;;20.37;52.34;100988.31;4828237;29;45507;-92
2021/08/01 09:16:00;;;;;;;;;2.33;1.33;;;;;20.49;51.81;100980.44;4827930;29;45408;-93
2021/08/01 09:18:51;;;;;;;;;;;;;;;;;;;;;
2021/08/01 09:21:56;;;;;;;;;1.67;1.67;;;;;20.70;51.54;100989.41;4842871;29;72995;-92
2021/08/01 09:25:04;;;;;;;;;4.00;3.00;;;;;20.80;51.38;100979.00;4827508;29;45447;-92
2021/08/01 09:27:47;;;;;;;;;3.00;2.67;;;;;20.94;50.24;100979.75;4843270;29;45945;-93
2021/08/01 09:30:43;;;;;;;;;1.67;1.00;;;;;21.06;50.85;100981.47;4843662;29;45499;-91
2021/08/01 09:33:15;;;;;;;;;3.00;2.67;;;;;21.18;50.96;100984.13;4843881;29;48147;-93
2021/08/01 09:35:48;;;;;;;;;2.00;2.00;;;;;21.26;50.25;100983.53;4869335;29;45532;-92
2021/08/01 09:38:34;;;;;;;;;2.00;2.00;;;;;21.33;49.81;100988.22;4893205;29;45626;-92
2021/08/01 09:41:12;;;;;;;;;3.00;3.00;;;;;21.32;49.76;100988.34;4897207;28;45438;-92
2021/08/01 09:44:05;;;;;;;;;3.00;2.00;;;;;21.25;48.89;100987.13;4961432;28;47173;-92
2021/08/01 09:46:44;;;;;;;;;4.00;2.67;;;;;21.13;49.58;100986.28;4947804;28;46095;-91
2021/08/01 09:49:39;;;;;;;;;2.67;2.67;;;;;21.08;49.39;100990.16;4940199;28;45338;-92
2021/08/01 09:52:12;;;;;;;;;2.00;2.00;;;;;20.99;49.42;100979.41;4940932;28;45609;-92
2021/08/01 09:55:16;;;;;;;;;2.00;2.00;;;;;20.95;49.00;100989.38;4939689;28;48276;-92
2021/08/01 09:57:57;;;;;;;;;1.00;1.00;;;;;20.90;49.11;100988.88;4920926;28;45448;-92
2021/08/01 10:00:26;;;;;;;;;2.00;2.00;;;;;20.83;49.09;100976.09;4936264;28;45300;-92
2021/08/01 10:02:57;;;;;;;;;2.00;2.00;;;;;20.79;49.06;100981.75;4919312;28;45564;-93
2021/08/01 10:05:25;;;;;;;;;1.33;1.00;;;;;20.80;48.70;100976.34;4929720;28;47623;-92
2021/08/01 10:07:51;;;;;;;;;1.33;1.33;;;;;20.83;48.78;100975.28;4922565;28;45571;-92
2021/08/01 10:10:22;;;;;;;;;3.00;2.00;;;;;20.94;49.17;100974.47;4921770;28;45532;-92
2021/08/01 10:12:57;;;;;;;;;2.33;2.33;;;;;21.01;48.97;100964.28;4940030;28;45262;-91
2021/08/01 10:15:29;;;;;;;;;1.00;1.00;;;;;21.10;49.27;100966.19;4936599;28;47126;-92
2021/08/01 10:17:54;;;;;;;;;3.00;1.33;;;;;21.17;48.97;100964.78;4917456;28;45452;-92
2021/08/01 10:20:25;;;;;;;;;2.67;2.00;;;;;21.25;48.39;100965.97;4928374;28;45473;-92
2021/08/01 10:22:56;;;;;;;;;3.33;1.67;;;;;21.37;48.60;100970.28;4936695;28;45726;-92
2021/08/01 10:25:36;;;;;;;;;3.00;2.00;;;;;21.47;47.76;100958.03;4898517;28;47258;-92
2021/08/01 10:28:09;;;;;;;;;1.00;1.00;;;;;21.66;48.16;100963.69;4916824;28;45597;-92
2021/08/01 10:31:04;;;;;;;;;1.00;1.00;;;;;21.87;46.92;100961.13;4901845;28;45448;-91
2021/08/01 10:33:45;;;;;;;;;1.33;1.00;;;;;22.10;47.00;100956.63;4859965;28;44893;-92
2021/08/01 10:36:18;;;;;;;;;1.33;1.33;;;;;22.29;46.79;100965.69;4895361;28;47091;-92
2021/08/01 10:38:48;;;;;;;;;1.33;1.33;;;;;22.37;45.52;100949.16;4904057;28;45484;-92
2021/08/01 10:41:27;;;;;;;;;2.33;0.67;;;;;22.50;46.16;100957.75;4906362;28;45399;-93
2021/08/01 10:43:58;;;;;;;;;1.00;1.00;;;;;22.65;45.91;100947.75;4907743;28;45822;-92
2021/08/01 10:46:47;;;;;;;;;2.00;2.00;;;;;22.88;45.82;100952.03;4899516;28;47312;-92
2021/08/01 10:49:27;;;;;;;;;2.00;1.33;;;;;23.05;45.75;100958.56;4913737;28;45977;-91
2021/08/01 10:52:20;;;;;;;;;;;;;;;;;;;;;
2021/08/01 10:55:05;;;;;;;;;3.00;1.00;;;;;23.15;45.02;100953.31;4897684;28;64427;-92
2021/08/01 10:57:31;;;;;;;;;0.67;0.67;;;;;23.20;44.98;100951.91;4915182;28;47251;-91
2021/08/01 11:00:03;;;;;;;;;3.33;0.33;;;;;23.21;43.94;100956.28;4911216;28;45278;-90
2021/08/01 11:02:33;;;;;;;;;0.00;0.00;;;;;23.22;44.76;100954.44;4880441;29;45521;-92
2021/08/01 11:05:37;;;;;;;;;0.00;0.00;;;;;23.31;43.79;100947.50;4967784;28;45437;-92
2021/08/01 11:08:06;;;;;;;;;1.00;1.00;;;;;23.35;43.92;100940.97;4962426;28;47305;-91
2021/08/01 11:10:32;;;;;;;;;1.33;0.00;;;;;23.38;43.38;100938.06;4974299;28;45659;-91
2021/08/01 11:12:58;;;;;;;;;0.00;0.00;;;;;23.44;44.05;100948.16;4968664;28;45607;-91
2021/08/01 11:15:53;;;;;;;;;0.00;0.00;;;;;23.53;43.28;100937.69;4974717;28;45888;-92
2021/08/01 11:18:33;;;;;;;;;0.00;0.00;;;;;23.70;42.33;100936.19;4947859;28;47494;-93
2021/08/01 11:21:09;;;;;;;;;0.00;0.00;;;;;23.86;42.45;100933.84;4975301;28;45390;-93
2021/08/01 11:23:55;;;;;;;;;0.00;0.00;;;;;24.15;42.79;100934.84;4954288;28;45813;-92
2021/08/01 11:26:25;;;;;;;;;0.00;0.00;;;;;24.44;41.42;100933.19;4940613;28;45436;-92
2021/08/01 11:29:09;;;;;;;;;1.00;0.00;;;;;24.70;41.54;100930.75;4944246;28;45738;-91
2021/08/01 11:31:35;;;;;;;;;0.00;0.00;;;;;25.03;41.78;100927.72;4959736;28;45411;-91
2021/08/01 11:34:30;;;;;;;;;0.00;0.00;;;;;25.37;41.56;100926.34;4962185;28;45682;-92
2021/08/01 11:37:21;;;;;;;;;0.00;0.00;;;;;25.68;40.41;100929.53;4920124;28;45279;-90
2021/08/01 11:40:05;;;;;;;;;;;;;;;;;;;;;
2021/08/01 11:42:37;;;;;;;;;0.00;0.00;;;;;26.05;39.06;100921.56;4915779;28;73342;-91
2021/08/01 11:45:17;;;;;;;;;0.00;0.00;;;;;26.28;39.38;100927.28;4900893;28;45515;-92
2021/08/01 11:47:44;;;;;;;;;0.00;0.00;;;;;26.41;38.63;100911.72;4902964;28;45914;-92
2021/08/01 11:50:26;;;;;;;;;0.00;0.00;;;;;26.66;39.52;100929.75;4918605;28;46515;-92
2021/08/01 11:53:02;;;;;;;;;0.33;0.00;;;;;26.91;38.24;100924.53;4934028;28;45466;-91
2021/08/01 11:55:27;;;;;;;;;0.00;0.00;;;;;27.04;38.14;100922.28;4903754;28;45564;-92
2021/08/01 11:57:53;;;;;;;;;0.00;0.00;;;;;27.10;37.10;100923.50;4903200;28;45584;-92
2021/08/01 12:00:25;;;;;;;;;0.00;0.00;;;;;26.91;36.61;100919.19;4933277;28;46624;-92
2021/08/01 12:02:56;;;;;;;;;0.00;0.00;;;;;26.74;36.52;100918.28;4902924;28;45475;-91
2021/08/01 12:05:24;;;;;;;;;0.00;0.00;;;;;26.60;37.50;100917.84;4903871;28;45401;-92
2021/08/01 12:07:52;;;;;;;;;0.00;0.00;;;;;26.55;37.04;100926.34;4903475;28;45563;-91
2021/08/01 12:10:24;;;;;;;;;0.00;0.00;;;;;26.50;36.91;100915.28;4903395;28;47287;-92
2021/08/01 12:12:56;;;;;;;;;0.00;0.00;;;;;26.51;37.66;100921.44;4913788;28;45465;-92
2021/08/01 12:15:26;;;;;;;;;0.00;0.00;;;;;26.60;36.93;100925.84;4959982;28;45321;-91
2021/08/01 12:17:53;;;;;;;;;0.00;0.00;;;;;26.63;37.25;100914.03;4942873;28;45546;-92
2021/08/01 12:20:41;;;;;;;;;0.00;0.00;;;;;26.59;36.87;100921.53;4942490;28;47229;-91
2021/08/01 12:23:08;;;;;;;;;0.00;0.00;;;;;26.61;36.57;100924.03;4965936;28;45483;-92
2021/08/01 12:25:47;;;;;;;;;1.00;0.00;;;;;26.66;36.77;100921.75;4977095;28;45523;-92
2021/08/01 12:28:15;;;;;;;;;7.00;6.33;;;;;26.73;36.68;100922.78;4983745;28;45531;-91
2021/08/01 12:30:50;;;;;;;;;4.33;4.33;;;;;26.77;36.05;100920.63;4979161;28;46746;-91
2021/08/01 12:33:16;;;;;;;;;2.00;2.00;;;;;26.74;36.20;100915.63;4966886;28;45599;-92
2021/08/01 12:35:44;;;;;;;;;5.00;5.00;;;;;26.68;36.62;100912.59;4978111;28;45466;-92